Time,TemperatureF,DewpointF,PressureIn,WindDirection,WindDirectionDegrees,WindSpeedMPH,WindSpeedGustMPH,Humidity,HourlyPrecipIn,Conditions,Clouds,dailyrainin,SoftwareType,DateUTC
2013-06-14 20:00:00,70.4,32.9,29.78,WNW,282,0.0,0.0,25,0.00,,,0.00,Wunderground v.1.15,2013-06-15 03:00:00,
2013-06-14 20:06:00,70.1,32.6,29.78,WNW,282,0.0,0.0,25,0.00,,,0.00,Wunderground v.1.15,2013-06-15 03:06:00,
2013-06-14 20:07:00,69.9,33.4,29.78,WNW,282,0.0,0.0,26,0.00,,,0.00,Wunderground v.1.15,2013-06-15 03:07:00,
2013-06-14 20:12:00,69.3,33.9,29.78,NE,51,0.0,6.0,27,0.00,,,0.00,Wunderground v.1.15,2013-06-15 03:12:00,
2013-06-14 20:17:00,68.3,31.1,29.79,North,3,4.0,8.0,25,0.00,,,0.00,Wunderground v.1.15,2013-06-15 03:17:00,
2013-06-14 20:22:00,67.9,27.6,29.79,NNE,24,2.0,10.0,22,0.00,,,0.00,Wunderground v.1.15,2013-06-15 03:22:00,
2013-06-14 20:27:00,67.6,27.4,29.79,NE,44,4.0,10.0,22,0.00,,,0.00,Wunderground v.1.15,2013-06-15 03:27:00,
2013-06-14 20:32:00,67.3,26.0,29.81,NE,55,0.0,6.0,21,0.00,,,0.00,Wunderground v.1.15,2013-06-15 03:32:00,
2013-06-14 20:37:00,66.9,24.5,29.81,NE,55,2.0,6.0,20,0.00,,,0.00,Wunderground v.1.15,2013-06-15 03:37:00,
2013-06-14 20:42:00,66.6,23.0,29.81,NE,55,2.0,2.0,19,0.00,,,0.00,Wunderground v.1.15,2013-06-15 03:42:00,
2013-06-14 20:47:00,66.6,23.0,29.81,NE,47,2.0,6.0,19,0.00,,,0.00,Wunderground v.1.15,2013-06-15 03:47:00,
2013-06-14 20:52:00,66.6,24.2,29.81,NE,47,0.0,4.0,20,0.00,,,0.00,Wunderground v.1.15,2013-06-15 03:52:00,
2013-06-14 20:57:00,66.3,25.2,29.81,NNE,31,4.0,4.0,21,0.00,,,0.00,Wunderground v.1.15,2013-06-15 03:57:00,
2013-06-14 21:01:00,66.1,25.0,29.81,NE,35,6.0,7.0,21,0.00,,,0.00,Wunderground v.1.15,2013-06-15 04:01:00,
2013-06-14 21:06:00,66.0,23.7,29.81,NE,34,4.0,7.0,20,0.00,,,0.00,Wunderground v.1.15,2013-06-15 04:06:00,
2013-06-14 21:11:00,65.8,26.9,29.81,North,357,1.0,4.0,23,0.00,,,0.00,Wunderground v.1.15,2013-06-15 04:11:00,
2013-06-14 21:16:00,65.0,29.2,29.81,North,353,0.0,4.0,26,0.00,,,0.00,Wunderground v.1.15,2013-06-15 04:16:00,
2013-06-14 21:21:00,63.9,29.2,29.81,North,353,1.0,2.0,27,0.00,,,0.00,Wunderground v.1.15,2013-06-15 04:21:00,
2013-06-14 21:27:00,62.9,28.4,29.81,NNE,14,0.0,6.0,27,0.00,,,0.00,Wunderground v.1.15,2013-06-15 04:27:00,
2013-06-14 21:32:00,62.3,27.9,29.83,North,8,0.0,2.0,27,0.00,,,0.00,Wunderground v.1.15,2013-06-15 04:32:00,
2013-06-14 21:37:00,61.8,27.4,29.83,North,353,0.0,4.0,27,0.00,,,0.00,Wunderground v.1.15,2013-06-15 04:37:00,
2013-06-14 21:42:00,61.6,27.3,29.83,North,353,1.0,1.0,27,0.00,,,0.00,Wunderground v.1.15,2013-06-15 04:42:00,
2013-06-14 21:47:00,61.2,27.8,29.85,North,353,1.0,2.0,28,0.00,,,0.00,Wunderground v.1.15,2013-06-15 04:47:00,
2013-06-14 21:52:00,60.5,28.1,29.85,North,353,1.0,2.0,29,0.00,,,0.00,Wunderground v.1.15,2013-06-15 04:52:00,
2013-06-14 21:57:00,60.2,27.8,29.85,North,353,0.0,2.0,29,0.00,,,0.00,Wunderground v.1.15,2013-06-15 04:57:00,
2013-06-14 22:02:00,59.9,27.5,29.85,North,353,0.0,0.0,29,0.00,,,0.00,Wunderground v.1.15,2013-06-15 05:02:00,
2013-06-14 22:07:00,59.3,28.6,29.85,North,353,0.0,1.0,31,0.00,,,0.00,Wunderground v.1.15,2013-06-15 05:07:00,
2013-06-14 22:12:00,59.2,27.7,29.85,North,11,2.0,4.0,30,0.00,,,0.00,Wunderground v.1.15,2013-06-15 05:12:00,
2013-06-14 22:17:00,59.3,26.2,29.85,North,11,4.0,4.0,28,0.00,,,0.00,Wunderground v.1.15,2013-06-15 05:17:00,
2013-06-14 22:22:00,59.9,25.8,29.85,North,11,2.0,4.0,27,0.00,,,0.00,Wunderground v.1.15,2013-06-15 05:22:00,
2013-06-14 22:27:00,60.2,26.1,29.85,NNE,13,2.0,4.0,27,0.00,,,0.00,Wunderground v.1.15,2013-06-15 05:27:00,
2013-06-14 22:32:00,60.4,26.2,29.85,NNE,13,2.0,2.0,27,0.00,,,0.00,Wunderground v.1.15,2013-06-15 05:32:00,
2013-06-14 22:37:00,60.2,24.2,29.85,NNE,18,4.0,6.0,25,0.00,,,0.00,Wunderground v.1.15,2013-06-15 05:37:00,
2013-06-14 22:42:00,60.9,23.8,29.85,NNE,14,2.0,4.0,24,0.00,,,0.00,Wunderground v.1.15,2013-06-15 05:42:00,
2013-06-14 22:47:00,61.2,24.1,29.84,NNE,14,0.0,4.0,24,0.00,,,0.00,Wunderground v.1.15,2013-06-15 05:47:00,
2013-06-14 22:52:00,61.0,24.9,29.84,NNE,14,0.0,1.0,25,0.00,,,0.00,Wunderground v.1.15,2013-06-15 05:52:00,
2013-06-14 22:57:00,60.5,25.4,29.84,NNE,14,0.0,1.0,26,0.00,,,0.00,Wunderground v.1.15,2013-06-15 05:57:00,
2013-06-14 23:02:00,60.2,25.1,29.84,NNE,14,1.0,1.0,26,0.00,,,0.00,Wunderground v.1.15,2013-06-15 06:02:00,
2013-06-14 23:07:00,59.8,26.6,29.84,NNE,14,0.0,1.0,28,0.00,,,0.00,Wunderground v.1.15,2013-06-15 06:07:00,
2013-06-14 23:12:00,59.2,26.1,29.84,NNE,14,0.0,0.0,28,0.00,,,0.00,Wunderground v.1.15,2013-06-15 06:12:00,
2013-06-14 23:17:00,58.6,27.2,29.83,NNE,14,0.0,1.0,30,0.00,,,0.00,Wunderground v.1.15,2013-06-15 06:17:00,
2013-06-14 23:22:00,57.8,28.1,29.83,East,88,0.0,1.0,32,0.00,,,0.00,Wunderground v.1.15,2013-06-15 06:22:00,
2013-06-14 23:27:00,56.9,31.5,29.83,East,93,0.0,4.0,38,0.00,,,0.00,Wunderground v.1.15,2013-06-15 06:27:00,
2013-06-14 23:32:00,55.9,33.7,29.84,East,93,6.0,6.0,43,0.00,,,0.00,Wunderground v.1.15,2013-06-15 06:32:00,
2013-06-14 23:37:00,54.8,33.3,29.84,ESE,106,1.0,7.0,44,0.00,,,0.00,Wunderground v.1.15,2013-06-15 06:37:00,
2013-06-14 23:42:00,54.1,32.6,29.84,ESE,106,0.0,1.0,44,0.00,,,0.00,Wunderground v.1.15,2013-06-15 06:42:00,
2013-06-14 23:47:00,53.6,32.8,29.85,ESE,106,0.0,2.0,45,0.00,,,0.00,Wunderground v.1.15,2013-06-15 06:47:00,
2013-06-14 23:52:00,53.2,32.4,29.85,ESE,106,0.0,2.0,45,0.00,,,0.00,Wunderground v.1.15,2013-06-15 06:52:00,
2013-06-14 23:57:00,52.8,31.5,29.85,ESE,106,1.0,2.0,44,0.00,,,0.00,Wunderground v.1.15,2013-06-15 06:57:00,